Schedule Details


Flight Number: CTN457
Departure: Brussels National (EBBR) at 09:45
Arrival: Franjo Tudman (LDZA) at 11:35
Route: SPI UL607 PELIX UZ210 LIRSU UZ315 RIDAR UZ738 MUN UM867 VAROB DCT PIKIT DCT ARGOM

Weather Information
EBBR 100020Z 04004KT CAVOK 10/06 Q1026 NOSIG
LDZA 100030Z 25005KT CAVOK 06/M00 Q1021 NOSIG
Schedule Frequency

Route Map